Time;durP1;ratioP1;P1;durP2;ratioP2;P2;SDS_P1;SDS_P2;PMS_P1;PMS_P2;Temp;Humidity;BMP_temperature;BMP_pressure;BME280_temperature;BME280_humidity;BME280_pressure;Samples;Min_cycle;Max_cycle;Signal;HPM_P1;HPM_P2
2022/11/20 00:01:27;;;;;;;15.73;7.68;;;;;;;;;;5077185;28;20362;-73
2022/11/20 00:03:55;;;;;;;15.73;8.15;;;;;;;;;;5077448;28;20048;-74
2022/11/20 00:06:23;;;;;;;15.73;7.68;;;;;;;;;;5072289;28;20053;-74
2022/11/20 00:08:50;;;;;;;15.82;8.88;;;;;;;;;;5076294;28;20430;-74
2022/11/20 00:11:19;;;;;;;15.23;8.88;;;;;;;;;;5070655;28;20144;-74
2022/11/20 00:13:47;;;;;;;15.32;8.18;;;;;;;;;;5074079;28;20048;-74
2022/11/20 00:16:16;;;;;;;15.50;8.05;;;;;;;;;;5073256;28;20172;-73
2022/11/20 00:18:43;;;;;;;19.00;8.30;;;;;;;;;;5076157;28;20103;-73
2022/11/20 00:21:11;;;;;;;15.70;8.00;;;;;;;;;;5071853;28;20514;-73
2022/11/20 00:23:39;;;;;;;13.40;7.63;;;;;;;;;;5075899;28;20314;-73
2022/11/20 00:26:07;;;;;;;18.77;7.78;;;;;;;;;;5079650;28;20100;-74
2022/11/20 00:28:34;;;;;;;13.23;6.50;;;;;;;;;;5082923;28;20061;-73
2022/11/20 00:31:06;;;;;;;14.88;7.30;;;;;;;;;;5081418;28;20107;-73
2022/11/20 00:33:34;;;;;;;13.85;7.05;;;;;;;;;;5077237;28;20524;-74
2022/11/20 00:36:02;;;;;;;16.45;7.90;;;;;;;;;;5078823;28;20482;-74
2022/11/20 00:38:29;;;;;;;16.50;7.13;;;;;;;;;;5079480;28;20053;-74
2022/11/20 00:40:57;;;;;;;14.57;6.93;;;;;;;;;;5082419;28;20202;-74
2022/11/20 00:43:24;;;;;;;13.10;7.10;;;;;;;;;;5077798;28;20053;-74
2022/11/20 00:45:56;;;;;;;12.90;6.32;;;;;;;;;;5081176;28;20203;-74
2022/11/20 00:48:23;;;;;;;14.65;7.00;;;;;;;;;;5077134;28;20044;-73
2022/11/20 00:50:50;;;;;;;14.48;7.35;;;;;;;;;;5075377;28;20053;-73
2022/11/20 00:53:17;;;;;;;15.55;6.80;;;;;;;;;;5078960;28;20060;-73
2022/11/20 00:55:53;;;;;;;19.70;8.35;;;;;;;;;;5073075;28;20053;-73
2022/11/20 00:58:20;;;;;;;19.48;8.30;;;;;;;;;;5080059;28;20059;-73
2022/11/20 01:00:47;;;;;;;33.50;11.07;;;;;;;;;;5079047;28;20049;-73
2022/11/20 01:03:14;;;;;;;21.27;8.45;;;;;;;;;;5074781;28;20083;-73
2022/11/20 01:05:42;;;;;;;19.95;8.95;;;;;;;;;;5073070;28;20053;-73
2022/11/20 01:08:09;;;;;;;19.92;8.90;;;;;;;;;;5078325;28;20049;-73
2022/11/20 01:10:36;;;;;;;20.40;9.95;;;;;;;;;;5077103;28;20076;-73
2022/11/20 01:15:51;;;;;;;20.98;9.13;;;;;;;;;;5079376;28;20632;-73
2022/11/20 01:18:18;;;;;;;20.23;8.98;;;;;;;;;;5075042;28;20106;-73
2022/11/20 01:20:45;;;;;;;17.67;8.55;;;;;;;;;;5074218;28;20083;-73
2022/11/20 01:23:12;;;;;;;13.82;6.45;;;;;;;;;;5081869;28;20085;-73
2022/11/20 01:25:40;;;;;;;11.00;6.20;;;;;;;;;;5074518;28;20056;-73
2022/11/20 01:28:07;;;;;;;13.82;6.85;;;;;;;;;;5072443;28;20053;-73
2022/11/20 01:30:34;;;;;;;13.75;7.00;;;;;;;;;;5084637;28;20048;-73
2022/11/20 01:33:01;;;;;;;13.63;7.03;;;;;;;;;;5076561;28;20052;-73
2022/11/20 01:35:28;;;;;;;13.48;6.68;;;;;;;;;;5076840;28;20045;-73
2022/11/20 01:37:55;;;;;;;13.15;7.03;;;;;;;;;;5084643;28;20109;-73
2022/11/20 01:40:22;;;;;;;15.38;7.32;;;;;;;;;;5071251;28;20052;-73
2022/11/20 01:45:51;;;;;;;15.45;6.90;;;;;;;;;;5071123;28;20053;-73
2022/11/20 01:48:19;;;;;;;14.40;7.25;;;;;;;;;;5084480;28;20052;-73
2022/11/20 01:50:46;;;;;;;12.15;6.75;;;;;;;;;;5071259;28;20053;-73
2022/11/20 01:53:15;;;;;;;13.05;6.93;;;;;;;;;;5076794;28;20115;-73
2022/11/20 01:55:46;;;;;;;15.60;7.80;;;;;;;;;;5079906;28;20049;-73
2022/11/20 01:58:13;;;;;;;18.35;8.85;;;;;;;;;;5079688;28;20064;-73
2022/11/20 02:00:41;;;;;;;18.83;7.53;;;;;;;;;;5076911;28;20516;-73
2022/11/20 02:03:09;;;;;;;12.32;6.93;;;;;;;;;;5088159;28;20510;-73
2022/11/20 02:05:45;;;;;;;15.32;7.18;;;;;;;;;;5079162;28;20059;-73
2022/11/20 02:08:12;;;;;;;15.70;7.65;;;;;;;;;;5078284;28;20098;-73
2022/11/20 02:10:39;;;;;;;16.42;7.82;;;;;;;;;;5084004;28;20080;-73
2022/11/20 02:15:52;;;;;;;14.77;7.72;;;;;;;;;;5076122;28;20053;-73
2022/11/20 02:18:20;;;;;;;15.05;7.72;;;;;;;;;;5084810;28;20067;-73
2022/11/20 02:20:49;;;;;;;17.15;8.13;;;;;;;;;;5075346;28;20048;-73
2022/11/20 02:23:27;;;;;;;15.07;8.02;;;;;;;;;;5083560;28;20055;-73
2022/11/20 02:25:55;;;;;;;16.50;8.52;;;;;;;;;;5076246;28;20057;-73
2022/11/20 02:28:23;;;;;;;17.88;7.88;;;;;;;;;;5079002;28;20083;-73
2022/11/20 02:30:50;;;;;;;14.65;7.43;;;;;;;;;;5078976;28;20510;-73
2022/11/20 02:33:17;;;;;;;15.88;8.05;;;;;;;;;;5089868;28;20497;-73
2022/11/20 02:35:45;;;;;;;15.63;7.57;;;;;;;;;;5078408;28;20485;-73
2022/11/20 02:38:12;;;;;;;17.27;7.80;;;;;;;;;;5077597;28;20049;-73
2022/11/20 02:40:39;;;;;;;17.67;8.13;;;;;;;;;;5078120;28;20079;-73
2022/11/20 02:43:06;;;;;;;15.93;7.78;;;;;;;;;;5084360;28;20079;-73
2022/11/20 02:45:34;;;;;;;14.30;7.97;;;;;;;;;;5068635;28;20075;-73
2022/11/20 02:48:01;;;;;;;15.88;7.53;;;;;;;;;;5075673;28;20049;-73
2022/11/20 02:50:28;;;;;;;15.70;8.10;;;;;;;;;;5075121;28;20064;-73
2022/11/20 02:52:55;;;;;;;15.27;7.72;;;;;;;;;;5083823;28;20057;-73
2022/11/20 02:55:22;;;;;;;19.50;8.35;;;;;;;;;;5082457;28;20045;-73
2022/11/20 02:57:49;;;;;;;15.48;7.97;;;;;;;;;;5089525;28;20049;-73
2022/11/20 03:00:16;;;;;;;17.77;8.75;;;;;;;;;;5081659;28;21092;-73
2022/11/20 03:02:44;;;;;;;16.70;8.73;;;;;;;;;;5073187;28;20490;-73
2022/11/20 03:05:11;;;;;;;26.45;9.48;;;;;;;;;;5081885;28;20522;-73
2022/11/20 03:07:38;;;;;;;28.88;11.60;;;;;;;;;;5077282;28;20416;-73
2022/11/20 03:10:05;;;;;;;28.15;11.70;;;;;;;;;;5075960;28;20064;-73
2022/11/20 03:12:32;;;;;;;20.33;9.35;;;;;;;;;;5077105;28;20056;-73
2022/11/20 03:14:59;;;;;;;29.33;11.55;;;;;;;;;;5072242;28;20056;-73
2022/11/20 03:17:26;;;;;;;36.45;14.35;;;;;;;;;;5075995;28;20559;-73
2022/11/20 03:19:53;;;;;;;21.50;9.85;;;;;;;;;;5079982;28;20057;-73
2022/11/20 03:22:20;;;;;;;17.63;8.50;;;;;;;;;;5080002;28;20543;-73
2022/11/20 03:24:47;;;;;;;16.83;9.30;;;;;;;;;;5074550;28;20045;-73
2022/11/20 03:27:14;;;;;;;17.35;8.95;;;;;;;;;;5076867;28;20122;-73
2022/11/20 03:29:41;;;;;;;22.77;9.48;;;;;;;;;;5076484;28;20053;-73
2022/11/20 03:32:09;;;;;;;17.85;8.60;;;;;;;;;;5072143;28;20049;-73
2022/11/20 03:34:36;;;;;;;16.70;8.27;;;;;;;;;;5073795;28;20052;-73
2022/11/20 03:37:03;;;;;;;17.02;7.97;;;;;;;;;;5075434;28;20059;-73
2022/11/20 03:39:30;;;;;;;19.50;8.88;;;;;;;;;;5077546;28;20049;-73
2022/11/20 03:41:57;;;;;;;18.35;9.35;;;;;;;;;;5083219;28;20847;-73
2022/11/20 03:44:24;;;;;;;18.55;9.00;;;;;;;;;;5075286;28;20919;-73
2022/11/20 03:46:51;;;;;;;13.93;8.20;;;;;;;;;;5082256;28;20037;-73
2022/11/20 03:49:18;;;;;;;19.55;8.35;;;;;;;;;;5083474;28;20736;-73
2022/11/20 03:51:46;;;;;;;17.50;7.78;;;;;;;;;;5067591;28;20080;-73
2022/11/20 03:54:14;;;;;;;24.88;8.30;;;;;;;;;;5078921;28;21936;-73
2022/11/20 03:56:41;;;;;;;17.42;8.38;;;;;;;;;;5076315;28;20045;-73
2022/11/20 03:59:10;;;;;;;17.58;8.00;;;;;;;;;;5081581;28;20048;-73
2022/11/20 04:01:37;;;;;;;17.92;8.45;;;;;;;;;;5077030;28;20517;-73
2022/11/20 04:04:05;;;;;;;16.50;7.63;;;;;;;;;;5089929;28;20429;-73
2022/11/20 04:06:36;;;;;;;17.52;7.65;;;;;;;;;;5075840;28;20824;-73
2022/11/20 04:09:04;;;;;;;16.20;8.48;;;;;;;;;;5074534;28;20049;-73
2022/11/20 04:11:31;;;;;;;16.50;8.10;;;;;;;;;;5078384;28;20464;-73
2022/11/20 04:14:00;;;;;;;17.45;8.23;;;;;;;;;;5078844;28;20059;-73
2022/11/20 04:16:29;;;;;;;15.88;7.53;;;;;;;;;;5078959;28;20509;-73
2022/11/20 04:18:57;;;;;;;18.52;8.10;;;;;;;;;;5076271;28;20045;-73
2022/11/20 04:21:25;;;;;;;17.02;8.65;;;;;;;;;;5077955;28;20058;-73
2022/11/20 04:23:54;;;;;;;21.23;10.02;;;;;;;;;;5082614;28;20045;-73
2022/11/20 04:26:21;;;;;;;18.75;8.60;;;;;;;;;;5078941;28;20467;-73
2022/11/20 04:28:48;;;;;;;15.43;8.27;;;;;;;;;;5079998;28;20049;-73
2022/11/20 04:31:17;;;;;;;17.88;7.88;;;;;;;;;;5078823;28;20052;-73
2022/11/20 04:33:44;;;;;;;17.25;8.30;;;;;;;;;;5071319;28;20106;-73
2022/11/20 04:36:11;;;;;;;17.45;7.80;;;;;;;;;;5074378;28;20053;-73
2022/11/20 04:38:38;;;;;;;22.52;9.38;;;;;;;;;;5085969;28;20040;-73
2022/11/20 04:41:06;;;;;;;18.55;8.40;;;;;;;;;;5080239;28;20072;-73
2022/11/20 04:43:33;;;;;;;16.40;8.73;;;;;;;;;;5075909;28;20052;-73
2022/11/20 04:46:01;;;;;;;17.80;8.15;;;;;;;;;;5087639;28;20110;-73
2022/11/20 04:48:29;;;;;;;14.60;7.88;;;;;;;;;;5078588;28;20041;-73
2022/11/20 04:50:56;;;;;;;14.80;7.38;;;;;;;;;;5083615;28;20053;-73
2022/11/20 04:53:24;;;;;;;14.93;7.47;;;;;;;;;;5080293;28;20053;-73
2022/11/20 04:55:51;;;;;;;14.98;8.32;;;;;;;;;;5076706;28;20053;-73
2022/11/20 04:58:18;;;;;;;16.60;7.85;;;;;;;;;;5077338;28;20048;-73
2022/11/20 05:00:45;;;;;;;15.48;7.85;;;;;;;;;;5081055;28;20059;-73
2022/11/20 05:03:12;;;;;;;17.48;8.48;;;;;;;;;;5072896;28;20052;-73
2022/11/20 05:05:39;;;;;;;14.65;7.65;;;;;;;;;;5072613;28;20565;-73
2022/11/20 05:08:06;;;;;;;15.98;7.45;;;;;;;;;;5077106;28;20098;-73
2022/11/20 05:10:33;;;;;;;17.33;7.80;;;;;;;;;;5073705;28;20063;-73
2022/11/20 05:13:01;;;;;;;15.75;7.43;;;;;;;;;;5084076;28;20063;-73
2022/11/20 05:15:28;;;;;;;14.13;7.32;;;;;;;;;;5074937;28;20049;-73
2022/11/20 05:17:55;;;;;;;13.93;6.75;;;;;;;;;;5074160;28;20056;-73
2022/11/20 05:20:22;;;;;;;16.27;7.10;;;;;;;;;;5084858;28;20481;-73
2022/11/20 05:22:49;;;;;;;11.23;6.90;;;;;;;;;;5077334;28;20556;-73
2022/11/20 05:25:16;;;;;;;11.30;6.22;;;;;;;;;;5072843;28;20057;-73
2022/11/20 05:27:43;;;;;;;15.80;7.47;;;;;;;;;;5071144;28;20111;-73
2022/11/20 05:30:10;;;;;;;16.10;7.55;;;;;;;;;;5073992;28;20932;-73
2022/11/20 05:32:37;;;;;;;14.07;6.93;;;;;;;;;;5074133;28;20053;-73
2022/11/20 05:35:04;;;;;;;14.20;7.30;;;;;;;;;;5076563;28;20053;-73
2022/11/20 05:37:31;;;;;;;18.17;8.35;;;;;;;;;;5075932;28;20506;-73
2022/11/20 05:39:59;;;;;;;14.40;7.50;;;;;;;;;;5072573;28;20061;-73
2022/11/20 05:42:32;;;;;;;16.33;6.57;;;;;;;;;;5081904;28;20045;-73
2022/11/20 05:45:00;;;;;;;21.83;6.82;;;;;;;;;;5076845;28;20514;-73
2022/11/20 05:47:28;;;;;;;14.00;6.60;;;;;;;;;;5079096;28;20632;-73
2022/11/20 05:49:55;;;;;;;13.77;6.88;;;;;;;;;;5080604;28;20053;-73
2022/11/20 05:52:22;;;;;;;12.70;6.68;;;;;;;;;;5077908;28;20060;-73
2022/11/20 05:54:49;;;;;;;12.63;6.43;;;;;;;;;;5078643;28;20049;-73
2022/11/20 05:57:16;;;;;;;14.80;7.13;;;;;;;;;;5076403;28;20053;-73
2022/11/20 05:59:43;;;;;;;15.07;6.90;;;;;;;;;;5087894;28;20044;-73
2022/11/20 06:02:11;;;;;;;17.17;8.00;;;;;;;;;;5083404;28;20675;-73
2022/11/20 06:04:38;;;;;;;13.43;6.90;;;;;;;;;;5074798;28;20905;-73
2022/11/20 06:07:09;;;;;;;18.67;7.60;;;;;;;;;;5076553;28;20490;-73
2022/11/20 06:09:36;;;;;;;14.45;7.20;;;;;;;;;;5077211;28;20149;-73
2022/11/20 06:12:03;;;;;;;11.57;5.85;;;;;;;;;;5081584;28;20581;-73
2022/11/20 06:14:30;;;;;;;12.45;7.40;;;;;;;;;;5078630;28;20055;-73
2022/11/20 06:16:57;;;;;;;12.05;6.10;;;;;;;;;;5073162;28;20049;-73
2022/11/20 06:19:25;;;;;;;16.30;6.93;;;;;;;;;;5083007;28;20044;-73
2022/11/20 06:21:52;;;;;;;12.93;7.47;;;;;;;;;;5071387;28;20045;-73
2022/11/20 06:24:19;;;;;;;16.02;6.82;;;;;;;;;;5074321;28;20053;-73
2022/11/20 06:26:46;;;;;;;14.32;7.18;;;;;;;;;;5073564;28;20056;-73
2022/11/20 06:29:13;;;;;;;15.88;7.20;;;;;;;;;;5081076;28;20060;-73
2022/11/20 06:31:42;;;;;;;16.63;7.15;;;;;;;;;;5071768;28;20514;-73
2022/11/20 06:34:09;;;;;;;11.43;6.32;;;;;;;;;;5072464;28;20057;-73
2022/11/20 06:36:36;;;;;;;13.65;7.13;;;;;;;;;;5079669;28;20202;-73
2022/11/20 06:39:03;;;;;;;20.95;6.85;;;;;;;;;;5077726;28;20923;-73
2022/11/20 06:41:30;;;;;;;15.65;7.15;;;;;;;;;;5075426;28;20059;-73
2022/11/20 06:43:57;;;;;;;15.52;7.07;;;;;;;;;;5080701;28;20060;-73
2022/11/20 06:46:24;;;;;;;17.35;6.72;;;;;;;;;;5078783;28;20048;-73
2022/11/20 06:48:51;;;;;;;14.52;7.28;;;;;;;;;;5077291;28;20049;-73
2022/11/20 06:51:18;;;;;;;18.50;7.03;;;;;;;;;;5076525;28;20932;-73
2022/11/20 06:53:45;;;;;;;15.75;7.18;;;;;;;;;;5072195;28;20049;-73
2022/11/20 06:56:13;;;;;;;16.38;6.72;;;;;;;;;;5090355;28;20044;-73
2022/11/20 06:58:40;;;;;;;17.63;8.20;;;;;;;;;;5077070;28;20052;-73
2022/11/20 07:01:09;;;;;;;16.92;7.85;;;;;;;;;;5079798;28;20064;-73
2022/11/20 07:03:37;;;;;;;13.60;7.43;;;;;;;;;;5076657;28;20528;-73
2022/11/20 07:06:04;;;;;;;13.82;7.07;;;;;;;;;;5081456;28;20048;-73
2022/11/20 07:08:32;;;;;;;14.75;7.53;;;;;;;;;;5082140;28;20049;-73
2022/11/20 07:11:00;;;;;;;14.93;6.97;;;;;;;;;;5079035;28;20076;-73
2022/11/20 07:13:28;;;;;;;17.05;8.10;;;;;;;;;;5058890;28;20683;-73
2022/11/20 07:15:55;;;;;;;14.57;7.25;;;;;;;;;;5078577;28;20053;-73
2022/11/20 07:18:22;;;;;;;15.77;8.30;;;;;;;;;;5077211;28;20049;-73
2022/11/20 07:20:49;;;;;;;14.60;7.13;;;;;;;;;;5077117;28;20068;-73
2022/11/20 07:23:16;;;;;;;14.80;7.60;;;;;;;;;;5078673;28;20096;-73
2022/11/20 07:25:43;;;;;;;14.18;7.15;;;;;;;;;;5075811;28;20059;-73
2022/11/20 07:28:10;;;;;;;18.42;8.60;;;;;;;;;;5077447;28;20061;-73
2022/11/20 07:30:38;;;;;;;16.85;8.63;;;;;;;;;;5081491;28;20049;-73
2022/11/20 07:33:05;;;;;;;20.17;9.02;;;;;;;;;;5084398;28;20506;-73
2022/11/20 07:35:32;;;;;;;18.90;9.30;;;;;;;;;;5078276;28;20717;-73
2022/11/20 07:37:59;;;;;;;19.35;9.90;;;;;;;;;;5083439;28;20494;-73
2022/11/20 07:40:27;;;;;;;24.88;9.88;;;;;;;;;;5084547;28;20694;-73
2022/11/20 07:42:54;;;;;;;17.20;8.10;;;;;;;;;;5079601;28;20053;-73
2022/11/20 07:45:23;;;;;;;19.00;8.40;;;;;;;;;;5066233;28;20063;-73
2022/11/20 07:47:50;;;;;;;14.90;7.45;;;;;;;;;;5062620;28;20049;-73
2022/11/20 07:50:17;;;;;;;17.80;9.07;;;;;;;;;;5062688;28;20106;-73
2022/11/20 07:52:44;;;;;;;16.95;8.07;;;;;;;;;;5056535;28;20049;-73
2022/11/20 07:55:12;;;;;;;22.75;9.18;;;;;;;;;;5061621;28;20061;-73
2022/11/20 07:57:39;;;;;;;15.88;8.80;;;;;;;;;;5060996;28;20055;-73
2022/11/20 08:00:11;;;;;;;22.10;9.43;;;;;;;;;;5057140;28;20073;-73
2022/11/20 08:02:39;;;;;;;20.02;8.52;;;;;;;;;;5047274;28;20688;-73
2022/11/20 08:05:06;;;;;;;19.73;9.63;;;;;;;;;;5065359;28;20126;-73
2022/11/20 08:07:40;;;;;;;20.25;10.07;;;;;;;;;;5059032;28;20045;-73
2022/11/20 08:10:08;;;;;;;18.85;8.98;;;;;;;;;;5054731;28;20110;-73
2022/11/20 08:15:21;;;;;;;18.38;8.27;;;;;;;;;;5067356;28;20151;-74
2022/11/20 08:17:48;;;;;;;16.25;8.50;;;;;;;;;;5065611;28;20588;-73
2022/11/20 08:20:35;;;;;;;16.85;8.35;;;;;;;;;;5055864;28;20057;-73
2022/11/20 08:23:05;;;;;;;16.13;8.95;;;;;;;;;;5064771;28;20049;-73
2022/11/20 08:25:33;;;;;;;20.92;9.23;;;;;;;;;;5067502;28;20112;-73
2022/11/20 08:28:01;;;;;;;17.67;9.15;;;;;;;;;;5067115;28;20450;-73
2022/11/20 08:30:38;;;;;;;20.35;9.25;;;;;;;;;;5062015;28;20065;-73
2022/11/20 08:33:09;;;;;;;19.00;8.85;;;;;;;;;;5058781;28;20789;-73
2022/11/20 08:35:37;;;;;;;18.10;9.07;;;;;;;;;;5057311;28;20576;-73
2022/11/20 08:38:05;;;;;;;18.58;9.27;;;;;;;;;;5065730;28;20048;-74
2022/11/20 08:40:32;;;;;;;17.25;9.80;;;;;;;;;;5063319;28;20046;-73
2022/11/20 08:42:59;;;;;;;20.73;8.55;;;;;;;;;;5057069;28;20053;-74
2022/11/20 08:45:26;;;;;;;18.25;9.48;;;;;;;;;;5084534;28;20048;-73
2022/11/20 08:48:00;;;;;;;16.23;8.75;;;;;;;;;;5078091;28;20111;-73
2022/11/20 08:50:28;;;;;;;20.08;8.82;;;;;;;;;;5082594;28;20053;-73
2022/11/20 08:52:55;;;;;;;21.02;9.27;;;;;;;;;;5078882;28;20099;-74
2022/11/20 08:55:22;;;;;;;18.00;9.27;;;;;;;;;;5082146;28;20522;-73
2022/11/20 08:57:49;;;;;;;17.92;9.20;;;;;;;;;;5079770;28;20051;-73
2022/11/20 09:00:17;;;;;;;20.70;9.77;;;;;;;;;;5078306;28;20482;-73
2022/11/20 09:02:44;;;;;;;20.67;10.02;;;;;;;;;;5082491;28;20052;-74
2022/11/20 09:05:11;;;;;;;16.42;8.93;;;;;;;;;;5080264;28;20055;-74
2022/11/20 09:07:38;;;;;;;18.15;9.48;;;;;;;;;;5073258;28;20136;-74
2022/11/20 09:10:06;;;;;;;19.17;9.70;;;;;;;;;;5078412;28;20080;-74
2022/11/20 09:12:51;;;;;;;20.42;9.30;;;;;;;;;;5084197;28;20049;-74
2022/11/20 09:15:19;;;;;;;20.00;10.25;;;;;;;;;;5073233;28;20048;-74
2022/11/20 09:17:52;;;;;;;19.67;10.10;;;;;;;;;;5076755;28;20048;-74
2022/11/20 09:20:19;;;;;;;21.20;10.32;;;;;;;;;;5075940;28;20049;-74
2022/11/20 09:22:47;;;;;;;28.10;10.60;;;;;;;;;;5084478;28;20424;-74
2022/11/20 09:25:14;;;;;;;19.98;10.90;;;;;;;;;;5078379;28;20057;-74
2022/11/20 09:27:43;;;;;;;18.80;9.73;;;;;;;;;;5076777;28;20052;-74
2022/11/20 09:30:10;;;;;;;17.77;10.30;;;;;;;;;;5072610;28;20140;-73
2022/11/20 09:32:39;;;;;;;22.25;10.13;;;;;;;;;;5086409;28;20052;-74
2022/11/20 09:35:06;;;;;;;17.38;10.30;;;;;;;;;;5082333;28;20048;-73
2022/11/20 09:37:33;;;;;;;24.40;11.18;;;;;;;;;;5080543;28;20827;-74
2022/11/20 09:40:00;;;;;;;20.08;10.25;;;;;;;;;;5077949;28;20056;-74
2022/11/20 09:42:46;;;;;;;21.50;10.18;;;;;;;;;;5078988;28;20057;-73
2022/11/20 09:45:32;;;;;;;22.52;10.07;;;;;;;;;;5080963;28;20052;-74
2022/11/20 09:48:17;;;;;;;25.45;11.85;;;;;;;;;;5078148;28;20102;-74
2022/11/20 09:51:01;;;;;;;21.25;11.05;;;;;;;;;;5081688;28;20053;-74
2022/11/20 09:53:57;;;;;;;19.88;10.90;;;;;;;;;;5079184;28;20053;-73
2022/11/20 09:56:24;;;;;;;19.70;10.63;;;;;;;;;;5077319;28;20052;-73
2022/11/20 09:58:52;;;;;;;20.35;11.45;;;;;;;;;;5078015;28;20044;-74
2022/11/20 10:01:20;;;;;;;23.15;11.43;;;;;;;;;;5081194;28;20053;-74
2022/11/20 10:03:54;;;;;;;25.73;11.32;;;;;;;;;;5075679;28;20556;-74
2022/11/20 10:06:24;;;;;;;20.30;11.65;;;;;;;;;;5081671;28;20469;-74
2022/11/20 10:08:56;;;;;;;25.33;11.18;;;;;;;;;;5082965;28;20106;-74
2022/11/20 10:11:23;;;;;;;25.52;11.68;;;;;;;;;;5072857;28;20479;-74
2022/11/20 10:14:09;;;;;;;24.40;11.75;;;;;;;;;;5076722;28;20498;-74
2022/11/20 10:16:53;;;;;;;21.83;11.65;;;;;;;;;;5085110;28;20056;-74
2022/11/20 10:19:44;;;;;;;24.67;12.60;;;;;;;;;;5083159;28;20053;-74
2022/11/20 10:22:26;;;;;;;21.92;12.32;;;;;;;;;;5074734;28;20059;-73
2022/11/20 10:24:53;;;;;;;26.70;12.70;;;;;;;;;;5073966;28;20057;-74
2022/11/20 10:27:20;;;;;;;21.95;12.63;;;;;;;;;;5084904;28;20102;-74
2022/11/20 10:29:52;;;;;;;23.30;11.98;;;;;;;;;;5086730;28;20051;-74
2022/11/20 10:32:20;;;;;;;24.13;12.27;;;;;;;;;;5081891;28;20057;-73
2022/11/20 10:34:51;;;;;;;23.58;12.52;;;;;;;;;;5079221;28;20057;-74
2022/11/20 10:37:21;;;;;;;29.90;13.90;;;;;;;;;;5084747;28;20079;-74
2022/11/20 10:39:54;;;;;;;26.80;14.48;;;;;;;;;;5087649;28;20055;-74
2022/11/20 10:42:28;;;;;;;24.92;13.50;;;;;;;;;;5079382;28;20048;-74
2022/11/20 10:45:02;;;;;;;29.67;14.18;;;;;;;;;;5076883;28;20501;-74
2022/11/20 10:47:33;;;;;;;25.05;13.82;;;;;;;;;;5077650;28;20559;-74
2022/11/20 10:50:04;;;;;;;26.52;14.38;;;;;;;;;;5079512;28;20053;-74
2022/11/20 10:52:37;;;;;;;25.70;14.43;;;;;;;;;;5081642;28;20052;-74
2022/11/20 10:55:08;;;;;;;27.23;14.30;;;;;;;;;;5083369;28;20049;-74
2022/11/20 10:57:57;;;;;;;32.33;15.45;;;;;;;;;;5087231;28;20682;-74
2022/11/20 11:00:24;;;;;;;25.85;14.00;;;;;;;;;;5083507;28;20855;-74
2022/11/20 11:02:52;;;;;;;26.83;14.25;;;;;;;;;;5076932;28;20056;-74
2022/11/20 11:05:25;;;;;;;26.13;15.02;;;;;;;;;;5084750;28;20892;-74
2022/11/20 11:07:55;;;;;;;26.80;14.05;;;;;;;;;;5078899;28;20506;-74
2022/11/20 11:10:25;;;;;;;27.08;13.40;;;;;;;;;;5080417;28;20053;-74
2022/11/20 11:12:52;;;;;;;29.92;15.18;;;;;;;;;;5075964;28;20084;-74
2022/11/20 11:15:29;;;;;;;26.00;14.10;;;;;;;;;;5078138;28;20071;-74
2022/11/20 11:17:57;;;;;;;32.97;14.90;;;;;;;;;;5080920;28;20084;-74
2022/11/20 11:20:25;;;;;;;24.65;13.98;;;;;;;;;;5080521;28;20044;-74
2022/11/20 11:22:54;;;;;;;27.13;14.05;;;;;;;;;;5075003;28;20110;-75
2022/11/20 11:25:34;;;;;;;30.38;15.43;;;;;;;;;;5077868;28;20063;-75
2022/11/20 11:28:06;;;;;;;29.58;15.00;;;;;;;;;;5076331;28;20494;-74
2022/11/20 11:30:43;;;;;;;28.20;15.52;;;;;;;;;;5082826;28;20118;-74
2022/11/20 11:33:12;;;;;;;27.15;14.88;;;;;;;;;;5082279;28;20071;-75
2022/11/20 11:35:44;;;;;;;25.10;14.50;;;;;;;;;;5073394;28;20067;-74
2022/11/20 11:38:19;;;;;;;31.25;16.25;;;;;;;;;;5078367;28;20063;-74
2022/11/20 11:40:46;;;;;;;28.65;16.42;;;;;;;;;;5076531;28;20431;-74
2022/11/20 11:46:24;;;;;;;28.00;15.23;;;;;;;;;;5079764;28;20051;-74
2022/11/20 11:49:06;;;;;;;31.80;16.10;;;;;;;;;;5077604;28;20059;-75
2022/11/20 11:51:53;;;;;;;32.03;16.10;;;;;;;;;;5081628;28;20056;-75
2022/11/20 11:54:40;;;;;;;30.27;14.93;;;;;;;;;;5066541;28;20055;-74
2022/11/20 11:57:14;;;;;;;29.85;15.77;;;;;;;;;;5070242;28;20056;-75
2022/11/20 11:59:41;;;;;;;;;;;;;;;;;;5073718;28;20052;-75
2022/11/20 12:02:34;;;;;;;29.00;14.95;;;;;;;;;;5074454;28;44097;-74
2022/11/20 12:05:11;;;;;;;31.05;15.93;;;;;;;;;;5038468;28;20048;-75
2022/11/20 12:07:47;;;;;;;31.58;16.65;;;;;;;;;;5076495;28;20056;-74
2022/11/20 12:10:20;;;;;;;33.20;16.05;;;;;;;;;;5086851;28;20104;-75
2022/11/20 12:12:53;;;;;;;36.08;16.90;;;;;;;;;;5080247;28;20048;-75
2022/11/20 12:15:26;;;;;;;30.45;16.48;;;;;;;;;;5076466;28;20612;-74
2022/11/20 12:17:54;;;;;;;32.47;17.17;;;;;;;;;;5063882;28;20056;-75
2022/11/20 12:20:23;;;;;;;32.08;16.02;;;;;;;;;;5067615;28;20055;-74
2022/11/20 12:23:08;;;;;;;31.33;16.45;;;;;;;;;;5080810;28;20063;-75
2022/11/20 12:25:39;;;;;;;31.80;15.88;;;;;;;;;;5085691;28;20520;-74
2022/11/20 12:28:22;;;;;;;32.03;14.95;;;;;;;;;;5066811;28;20461;-75
2022/11/20 12:30:55;;;;;;;29.48;16.45;;;;;;;;;;5074893;28;20048;-74
2022/11/20 12:33:36;;;;;;;28.80;16.08;;;;;;;;;;5076026;28;20537;-75
2022/11/20 12:36:20;;;;;;;30.75;16.13;;;;;;;;;;5074969;28;20045;-75
2022/11/20 12:39:08;;;;;;;31.00;15.60;;;;;;;;;;5079336;28;20056;-75
2022/11/20 12:47:49;;;;;;;30.80;14.18;;;;;;;;;;5071815;28;20141;-75
2022/11/20 12:50:31;;;;;;;30.52;15.75;;;;;;;;;;5078464;28;20589;-75
2022/11/20 12:53:28;;;;;;;31.58;16.10;;;;;;;;;;5062984;28;20141;-75
2022/11/20 12:55:56;;;;;;;29.70;16.15;;;;;;;;;;5072188;28;20281;-75
2022/11/20 12:58:46;;;;;;;32.00;17.02;;;;;;;;;;5077689;28;20053;-75
2022/11/20 13:01:40;;;;;;;32.63;17.63;;;;;;;;;;5069406;28;20045;-75
2022/11/20 13:04:16;;;;;;;29.70;16.48;;;;;;;;;;5081533;28;20067;-75
2022/11/20 13:06:44;;;;;;;33.08;18.85;;;;;;;;;;5081713;28;20049;-75
2022/11/20 13:09:14;;;;;;;32.25;16.50;;;;;;;;;;5061379;28;20049;-74
2022/11/20 13:12:00;;;;;;;30.48;16.23;;;;;;;;;;5080479;28;20051;-75
2022/11/20 13:14:33;;;;;;;30.42;16.45;;;;;;;;;;5084710;28;20048;-74
2022/11/20 13:17:06;;;;;;;31.77;16.70;;;;;;;;;;5080053;28;20104;-75
2022/11/20 13:19:34;;;;;;;32.28;17.58;;;;;;;;;;5077455;28;20048;-75
2022/11/20 13:22:01;;;;;;;29.63;16.38;;;;;;;;;;5065387;28;20049;-76
2022/11/20 13:24:30;;;;;;;34.28;16.95;;;;;;;;;;5078814;28;20049;-75
2022/11/20 13:27:04;;;;;;;34.08;18.00;;;;;;;;;;5079108;28;20059;-75
2022/11/20 13:29:32;;;;;;;29.63;16.80;;;;;;;;;;5067350;28;20056;-75
2022/11/20 13:32:14;;;;;;;36.53;16.98;;;;;;;;;;5076334;28;20418;-75
2022/11/20 13:34:58;;;;;;;31.80;16.10;;;;;;;;;;5074200;28;20055;-75
2022/11/20 13:37:35;;;;;;;31.42;17.05;;;;;;;;;;5076097;28;20056;-75
2022/11/20 13:40:06;;;;;;;30.65;16.48;;;;;;;;;;5077189;28;20351;-75
2022/11/20 13:42:36;;;;;;;33.70;17.70;;;;;;;;;;5085079;28;20600;-75
2022/11/20 13:45:09;;;;;;;29.67;16.30;;;;;;;;;;5079257;28;20063;-75
2022/11/20 13:47:36;;;;;;;31.38;16.55;;;;;;;;;;5077162;28;20049;-75
2022/11/20 13:50:04;;;;;;;32.40;16.95;;;;;;;;;;5075745;28;20056;-75
2022/11/20 13:52:31;;;;;;;32.08;16.77;;;;;;;;;;5078331;28;20049;-76
2022/11/20 13:55:21;;;;;;;34.22;17.35;;;;;;;;;;5072512;28;20558;-75
2022/11/20 13:58:00;;;;;;;31.05;16.48;;;;;;;;;;5080604;28;20084;-75
2022/11/20 14:00:27;;;;;;;29.20;16.85;;;;;;;;;;5082633;28;20110;-74
2022/11/20 14:03:03;;;;;;;33.22;16.92;;;;;;;;;;5081102;28;20057;-75
2022/11/20 14:05:32;;;;;;;31.67;16.92;;;;;;;;;;5084498;28;20166;-75
2022/11/20 14:07:59;;;;;;;30.25;16.17;;;;;;;;;;5073933;28;20052;-75
2022/11/20 14:10:29;;;;;;;36.00;17.63;;;;;;;;;;5076319;28;20082;-75
2022/11/20 14:12:58;;;;;;;32.50;16.02;;;;;;;;;;5072663;28;20053;-75
2022/11/20 14:15:33;;;;;;;31.83;16.02;;;;;;;;;;5084441;28;20048;-75
2022/11/20 14:18:11;;;;;;;34.10;16.88;;;;;;;;;;5080664;28;20079;-75
2022/11/20 14:20:38;;;;;;;36.88;17.25;;;;;;;;;;5078167;28;20049;-75
2022/11/20 14:23:08;;;;;;;35.55;18.17;;;;;;;;;;5071796;28;20064;-75
2022/11/20 14:25:35;;;;;;;39.10;17.67;;;;;;;;;;5074078;28;20510;-75
2022/11/20 14:28:03;;;;;;;38.10;17.77;;;;;;;;;;5079782;28;20048;-75
2022/11/20 14:30:43;;;;;;;40.53;18.17;;;;;;;;;;5072542;28;20051;-75
2022/11/20 14:33:13;;;;;;;40.60;18.65;;;;;;;;;;5078954;28;20084;-75
2022/11/20 14:35:45;;;;;;;40.65;18.92;;;;;;;;;;5073206;28;20104;-75
2022/11/20 14:38:14;;;;;;;40.60;19.08;;;;;;;;;;5078252;28;20491;-75
2022/11/20 14:40:42;;;;;;;42.42;18.10;;;;;;;;;;5078228;28;20130;-75
2022/11/20 14:43:26;;;;;;;37.45;17.27;;;;;;;;;;5080292;28;20836;-75
2022/11/20 14:45:56;;;;;;;36.45;17.67;;;;;;;;;;5077270;28;20052;-75
2022/11/20 14:48:26;;;;;;;40.10;18.08;;;;;;;;;;5083769;28;20052;-75
2022/11/20 14:50:53;;;;;;;39.85;17.25;;;;;;;;;;5079336;28;20057;-75
2022/11/20 14:53:24;;;;;;;38.63;18.42;;;;;;;;;;5072232;28;20069;-75
2022/11/20 14:55:55;;;;;;;40.63;17.92;;;;;;;;;;5055934;28;20045;-75
2022/11/20 14:58:25;;;;;;;;;;;;;;;;;;5069546;28;20049;-75
2022/11/20 15:00:56;;;;;;;38.45;16.65;;;;;;;;;;5077495;28;41966;-75
2022/11/20 15:03:23;;;;;;;30.35;16.80;;;;;;;;;;5069669;28;20571;-75